Time;durP1;ratioP1;P1;durP2;ratioP2;P2;SDS_P1;SDS_P2;PMS_P1;PMS_P2;Temp;Humidity;BMP_temperature;BMP_pressure;BME280_temperature;BME280_humidity;BME280_pressure;Samples;Min_cycle;Max_cycle;Signal;HPM_P1;HPM_P2
2022/09/09 00:00:42;;;;;;;12.32;7.85;;;14.60;99.90;;;;;;3059679;19;20011;-72
2022/09/09 00:01:51;;;;;;;11.32;8.10;;;14.70;99.90;;;;;;3060545;19;20041;-73
2022/09/09 00:03:04;;;;;;;10.55;7.32;;;14.80;99.90;;;;;;3060500;19;20094;-72
2022/09/09 00:04:17;;;;;;;12.18;8.20;;;14.70;99.90;;;;;;3059287;19;20010;-72
2022/09/09 00:05:28;;;;;;;11.48;8.13;;;14.60;99.90;;;;;;3058248;19;20015;-72
2022/09/09 00:06:37;;;;;;;12.50;8.60;;;14.70;99.90;;;;;;3060730;19;20106;-72
2022/09/09 00:07:46;;;;;;;13.20;8.18;;;14.40;99.90;;;;;;3058263;19;20018;-72
2022/09/09 00:09:00;;;;;;;15.75;8.98;;;14.50;99.90;;;;;;3059605;19;20021;-73
2022/09/09 00:10:15;;;;;;;13.32;8.07;;;14.30;99.90;;;;;;3060174;19;20018;-72
2022/09/09 00:11:26;;;;;;;14.77;8.40;;;14.40;99.90;;;;;;3060231;19;20019;-73
2022/09/09 00:12:36;;;;;;;13.50;8.77;;;14.40;99.90;;;;;;3060851;19;20358;-72
2022/09/09 00:13:46;;;;;;;10.98;8.25;;;14.50;99.90;;;;;;3060420;19;20034;-73
2022/09/09 00:14:57;;;;;;;12.35;8.20;;;14.40;99.90;;;;;;3059675;19;20012;-72
2022/09/09 00:16:04;;;;;;;15.15;8.23;;;14.50;99.90;;;;;;3059895;19;20086;-72
2022/09/09 00:17:15;;;;;;;15.10;8.73;;;14.50;99.90;;;;;;3058783;19;20027;-72
2022/09/09 00:18:23;;;;;;;12.02;8.30;;;14.50;99.90;;;;;;3060863;19;20019;-72
2022/09/09 00:19:34;;;;;;;19.25;9.32;;;14.30;99.90;;;;;;3059287;19;20078;-72
2022/09/09 00:20:42;;;;;;;12.43;8.85;;;14.60;99.90;;;;;;3059185;19;20014;-72
2022/09/09 00:22:18;;;;;;;11.52;8.48;;;15.00;99.90;;;;;;3057922;19;20019;-72
2022/09/09 00:23:43;;;;;;;13.77;7.93;;;14.40;99.90;;;;;;3058435;19;20033;-72
2022/09/09 00:25:16;;;;;;;11.45;8.63;;;14.30;99.90;;;;;;3057958;19;20375;-72
2022/09/09 00:26:45;;;;;;;12.02;8.23;;;14.50;99.90;;;;;;3057820;19;20014;-72
2022/09/09 00:28:19;;;;;;;16.92;8.45;;;14.60;99.90;;;;;;3058819;19;20073;-72
2022/09/09 00:29:45;;;;;;;12.63;8.63;;;14.20;99.90;;;;;;3060567;19;20026;-72
2022/09/09 00:31:14;;;;;;;12.05;8.52;;;14.40;99.90;;;;;;3058813;19;20063;-72
2022/09/09 00:32:39;;;;;;;13.55;8.32;;;14.40;99.90;;;;;;3058438;19;20081;-72
2022/09/09 00:34:08;;;;;;;11.82;8.38;;;15.30;99.90;;;;;;3058659;19;20352;-72
2022/09/09 00:35:36;;;;;;;15.55;8.82;;;14.30;99.90;;;;;;3059297;19;20042;-72
2022/09/09 00:36:58;;;;;;;15.52;8.98;;;14.30;99.90;;;;;;3057973;19;20014;-72
2022/09/09 00:38:29;;;;;;;13.93;8.68;;;14.10;99.90;;;;;;3059648;19;20091;-72
2022/09/09 00:39:52;;;;;;;13.13;8.80;;;14.30;99.90;;;;;;3058122;19;20010;-72
2022/09/09 00:41:22;;;;;;;16.50;8.70;;;14.10;99.90;;;;;;3057994;19;20014;-72
2022/09/09 00:42:46;;;;;;;13.98;9.60;;;14.20;99.90;;;;;;3059380;19;20022;-72
2022/09/09 00:44:27;;;;;;;15.00;9.23;;;13.90;99.90;;;;;;3059245;19;20018;-72
2022/09/09 00:46:09;;;;;;;15.05;9.00;;;14.00;99.90;;;;;;3058844;19;20014;-72
2022/09/09 00:47:52;;;;;;;14.45;8.45;;;13.90;99.90;;;;;;3057580;19;20031;-72
2022/09/09 00:49:24;;;;;;;16.20;9.73;;;13.90;99.90;;;;;;3059249;19;20359;-72
2022/09/09 00:50:55;;;;;;;14.20;8.65;;;14.20;99.90;;;;;;3058124;19;20578;-72
2022/09/09 00:52:25;;;;;;;14.13;9.68;;;14.20;99.90;;;;;;3058644;19;20018;-72
2022/09/09 00:54:21;;;;;;;13.90;9.07;;;14.20;99.90;;;;;;3057683;19;20033;-72
2022/09/09 00:55:48;;;;;;;15.48;8.95;;;14.00;99.90;;;;;;3057813;19;20015;-72
2022/09/09 00:57:29;;;;;;;18.08;9.68;;;13.90;99.90;;;;;;3058661;19;20018;-72
2022/09/09 00:59:02;;;;;;;15.13;9.32;;;13.90;99.90;;;;;;3057851;19;20014;-72
2022/09/09 01:00:29;;;;;;;14.15;9.18;;;14.10;99.90;;;;;;3057887;19;20094;-72
2022/09/09 01:01:52;;;;;;;14.23;9.30;;;13.90;99.90;;;;;;3058282;19;20026;-72
2022/09/09 01:03:28;;;;;;;14.23;9.00;;;14.10;99.90;;;;;;3058846;19;20018;-72
2022/09/09 01:04:50;;;;;;;15.00;9.50;;;14.10;99.90;;;;;;3057791;19;20014;-72
2022/09/09 01:06:22;;;;;;;17.35;9.18;;;14.10;99.90;;;;;;3057393;19;20010;-72
2022/09/09 01:07:48;;;;;;;14.60;9.15;;;14.00;99.90;;;;;;3057032;19;20097;-72
2022/09/09 01:09:24;;;;;;;17.42;8.90;;;14.10;99.90;;;;;;3057825;19;20017;-72
2022/09/09 01:10:53;;;;;;;16.33;9.50;;;13.90;99.90;;;;;;3058868;19;20393;-72
2022/09/09 01:12:19;;;;;;;13.30;9.10;;;14.00;99.90;;;;;;3057572;19;20574;-72
2022/09/09 01:13:45;;;;;;;13.43;8.88;;;14.20;99.90;;;;;;3057708;19;20018;-72
2022/09/09 01:15:16;;;;;;;15.60;8.88;;;14.00;99.90;;;;;;3058388;19;20062;-72
2022/09/09 01:16:38;;;;;;;13.68;9.50;;;13.90;99.90;;;;;;3057808;19;20018;-72
2022/09/09 01:18:06;;;;;;;15.82;9.38;;;14.00;99.90;;;;;;3058180;19;20074;-72
2022/09/09 01:19:40;;;;;;;14.57;8.70;;;14.20;99.90;;;;;;3057274;19;20082;-72
2022/09/09 01:21:12;;;;;;;14.88;8.70;;;13.90;99.90;;;;;;3058449;19;20551;-72
2022/09/09 01:22:40;;;;;;;15.57;8.70;;;14.10;99.90;;;;;;3058085;19;20024;-72
2022/09/09 01:24:22;;;;;;;12.93;8.95;;;14.20;99.90;;;;;;3057095;19;20043;-72
2022/09/09 01:26:18;;;;;;;16.88;9.30;;;14.10;99.90;;;;;;3057700;19;20006;-72
2022/09/09 01:27:41;;;;;;;17.95;9.75;;;13.90;99.90;;;;;;3057898;19;20014;-72
2022/09/09 01:29:09;;;;;;;17.98;9.48;;;14.00;99.90;;;;;;3058282;19;20010;-72
2022/09/09 01:30:35;;;;;;;14.13;9.27;;;14.10;99.90;;;;;;3058794;19;20475;-72
2022/09/09 01:31:59;;;;;;;13.48;9.02;;;13.90;99.90;;;;;;3057846;19;20014;-72
2022/09/09 01:33:23;;;;;;;14.40;10.18;;;14.00;99.90;;;;;;3057046;19;20544;-73
2022/09/09 01:34:47;;;;;;;14.68;9.23;;;14.00;99.90;;;;;;3057062;19;20436;-72
2022/09/09 01:36:12;;;;;;;16.60;9.45;;;14.00;99.90;;;;;;3056633;19;20029;-72
2022/09/09 01:37:36;;;;;;;15.18;9.75;;;14.00;99.90;;;;;;3058306;19;20014;-72
2022/09/09 01:38:58;;;;;;;17.60;10.50;;;13.80;99.90;;;;;;3058269;19;20027;-72
2022/09/09 01:40:25;;;;;;;14.02;9.00;;;14.10;99.90;;;;;;3057508;19;20018;-73
2022/09/09 01:41:51;;;;;;;14.38;9.52;;;14.10;99.90;;;;;;3057088;19;20028;-73
2022/09/09 01:43:15;;;;;;;16.45;9.38;;;13.90;99.90;;;;;;3058099;19;20501;-72
2022/09/09 01:44:40;;;;;;;14.32;9.32;;;14.70;99.90;;;;;;3057347;19;20011;-72
2022/09/09 01:46:02;;;;;;;17.42;9.13;;;14.10;99.90;;;;;;3056977;19;20017;-72
2022/09/09 01:47:26;;;;;;;15.47;8.70;;;14.00;99.90;;;;;;3056960;19;20014;-72
2022/09/09 01:48:52;;;;;;;13.82;9.50;;;14.00;99.90;;;;;;3057525;19;20247;-72
2022/09/09 01:50:16;;;;;;;17.42;9.18;;;14.00;99.90;;;;;;3056928;19;20011;-72
2022/09/09 01:51:41;;;;;;;17.58;9.13;;;14.00;99.90;;;;;;3058657;19;20513;-73
2022/09/09 01:53:03;;;;;;;16.75;9.70;;;14.10;99.90;;;;;;3057899;19;20011;-72
2022/09/09 01:54:30;;;;;;;14.73;9.00;;;13.90;99.90;;;;;;3058732;19;20048;-72
2022/09/09 01:56:02;;;;;;;13.65;8.85;;;14.00;99.90;;;;;;3058322;19;20018;-73
2022/09/09 01:57:33;;;;;;;14.75;9.50;;;14.10;99.90;;;;;;3057279;19;20021;-72
2022/09/09 01:59:04;;;;;;;14.20;9.25;;;13.90;99.90;;;;;;3057326;19;20369;-72
2022/09/09 02:00:28;;;;;;;14.70;9.52;;;13.40;99.90;;;;;;3057748;19;20014;-72
2022/09/09 02:02:06;;;;;;;14.35;8.63;;;13.90;99.90;;;;;;3057091;19;20338;-72
2022/09/09 02:03:30;;;;;;;14.00;9.20;;;14.10;99.90;;;;;;3057828;19;20018;-72
2022/09/09 02:04:57;;;;;;;14.10;9.00;;;14.50;99.90;;;;;;3057039;19;20014;-72
2022/09/09 02:06:28;;;;;;;16.05;9.98;;;13.80;99.90;;;;;;3056252;19;20038;-72
2022/09/09 02:07:58;;;;;;;15.07;9.25;;;13.80;99.90;;;;;;3056348;19;20337;-72
2022/09/09 02:09:24;;;;;;;12.63;8.52;;;13.70;99.90;;;;;;3058172;19;20097;-72
2022/09/09 02:10:52;;;;;;;15.32;9.35;;;13.70;99.90;;;;;;3056812;19;20019;-72
2022/09/09 02:12:19;;;;;;;14.35;8.40;;;13.70;99.90;;;;;;3056600;19;20003;-72
2022/09/09 02:13:46;;;;;;;15.88;9.35;;;13.60;99.90;;;;;;3057160;19;20042;-72
2022/09/09 02:15:18;;;;;;;14.75;8.90;;;13.70;99.90;;;;;;3056770;19;20340;-72
2022/09/09 02:16:47;;;;;;;15.38;8.25;;;13.80;99.90;;;;;;3056173;19;20011;-72
2022/09/09 02:18:10;;;;;;;15.85;9.07;;;13.60;99.90;;;;;;3056905;19;20045;-72
2022/09/09 02:19:37;;;;;;;15.57;8.80;;;13.60;99.90;;;;;;3056982;19;20014;-72
2022/09/09 02:20:59;;;;;;;15.10;8.48;;;13.90;99.90;;;;;;3056394;19;20021;-72
2022/09/09 02:22:26;;;;;;;17.05;9.00;;;13.80;99.90;;;;;;3056897;19;20463;-73
2022/09/09 02:23:53;;;;;;;12.45;7.68;;;14.60;99.90;;;;;;3057172;19;20503;-73
2022/09/09 02:25:20;;;;;;;17.48;8.15;;;13.50;99.90;;;;;;3056220;19;20082;-72
2022/09/09 02:26:44;;;;;;;16.70;8.85;;;13.70;99.90;;;;;;3056763;19;20373;-72
2022/09/09 02:28:12;;;;;;;13.75;8.52;;;13.60;99.90;;;;;;3058368;19;20042;-73
2022/09/09 02:29:42;;;;;;;14.00;8.45;;;13.60;99.90;;;;;;3059657;19;20074;-72
2022/09/09 02:31:04;;;;;;;15.20;8.15;;;13.80;99.90;;;;;;3059857;19;20018;-73
2022/09/09 02:32:30;;;;;;;12.18;8.00;;;13.60;99.90;;;;;;3060221;19;20015;-72
2022/09/09 02:33:55;;;;;;;14.15;8.52;;;13.70;99.90;;;;;;3060254;19;20015;-72
2022/09/09 02:35:24;;;;;;;13.70;8.73;;;13.70;99.90;;;;;;3059771;19;20025;-73
2022/09/09 02:36:49;;;;;;;15.55;8.13;;;13.70;99.90;;;;;;3059941;19;20029;-72
2022/09/09 02:38:17;;;;;;;15.05;8.70;;;13.70;99.90;;;;;;3059760;19;20014;-72
2022/09/09 02:39:41;;;;;;;14.43;8.55;;;13.50;99.90;;;;;;3059537;19;20015;-72
2022/09/09 02:41:03;;;;;;;12.73;8.30;;;13.60;99.90;;;;;;3060182;19;20050;-72
2022/09/09 02:42:27;;;;;;;15.68;8.43;;;13.50;99.90;;;;;;3059852;19;20511;-72
2022/09/09 02:43:51;;;;;;;15.55;8.10;;;13.70;99.90;;;;;;3059133;19;20022;-72
2022/09/09 02:45:18;;;;;;;18.45;8.00;;;13.50;99.90;;;;;;3060634;19;20007;-72
2022/09/09 02:47:06;;;;;;;14.43;8.50;;;13.70;99.90;;;;;;3059264;19;20019;-73
2022/09/09 02:48:38;;;;;;;14.25;8.15;;;13.70;99.90;;;;;;3058800;19;20375;-72
2022/09/09 02:50:07;;;;;;;18.00;8.35;;;13.70;99.90;;;;;;3059691;19;20019;-72
2022/09/09 02:51:38;;;;;;;14.45;8.25;;;13.60;99.90;;;;;;3059911;19;20027;-72
2022/09/09 02:53:09;;;;;;;16.55;8.70;;;13.70;99.90;;;;;;3060401;19;20011;-72
2022/09/09 02:54:36;;;;;;;14.57;7.85;;;13.90;99.90;;;;;;3061667;19;20006;-72
2022/09/09 02:56:03;;;;;;;14.68;8.18;;;14.00;99.90;;;;;;3060464;19;20018;-72
2022/09/09 02:57:32;;;;;;;12.93;7.35;;;13.70;99.90;;;;;;3059815;19;20041;-72
2022/09/09 02:58:56;;;;;;;13.70;7.47;;;13.80;99.90;;;;;;3059637;19;20006;-73
2022/09/09 03:00:29;;;;;;;14.10;8.40;;;13.90;99.90;;;;;;3059160;19;20041;-72
2022/09/09 03:01:51;;;;;;;13.80;8.07;;;13.70;99.90;;;;;;3059921;19;20014;-72
2022/09/09 03:03:15;;;;;;;14.05;8.30;;;13.70;99.90;;;;;;3059558;19;20021;-73
2022/09/09 03:04:39;;;;;;;14.38;8.40;;;13.70;99.90;;;;;;3058974;19;20399;-72
2022/09/09 03:06:00;;;;;;;14.65;7.72;;;12.60;99.90;;;;;;3059047;19;20015;-72
2022/09/09 03:07:24;;;;;;;14.70;8.23;;;13.60;99.90;;;;;;3059844;19;20018;-72
2022/09/09 03:08:49;;;;;;;12.50;7.70;;;13.60;99.90;;;;;;3057950;19;20017;-72
2022/09/09 03:10:10;;;;;;;13.73;7.82;;;13.70;99.90;;;;;;3060684;19;20484;-72
2022/09/09 03:11:34;;;;;;;12.85;7.82;;;13.50;99.90;;;;;;3060517;19;20026;-72
2022/09/09 03:12:56;;;;;;;13.02;7.93;;;14.70;99.90;;;;;;3060370;19;20032;-72
2022/09/09 03:14:21;;;;;;;11.38;7.65;;;14.00;99.90;;;;;;3059191;19;20082;-72
2022/09/09 03:15:48;;;;;;;18.48;7.93;;;13.80;99.90;;;;;;3059272;19;20471;-72
2022/09/09 03:17:09;;;;;;;13.52;8.07;;;15.40;99.90;;;;;;3060139;19;20082;-72
2022/09/09 03:18:34;;;;;;;13.90;7.90;;;15.00;99.90;;;;;;3059134;19;20018;-72
2022/09/09 03:19:57;;;;;;;11.57;7.70;;;12.70;99.90;;;;;;3059250;19;20471;-72
2022/09/09 03:21:21;;;;;;;12.73;7.13;;;14.20;99.90;;;;;;3059031;19;20038;-72
2022/09/09 03:22:43;;;;;;;14.07;7.85;;;13.80;99.90;;;;;;3059061;19;20455;-72
2022/09/09 03:24:07;;;;;;;11.57;7.55;;;13.80;99.90;;;;;;3059389;19;20014;-72
2022/09/09 03:25:31;;;;;;;16.05;7.72;;;13.60;99.90;;;;;;3058920;19;20014;-72
2022/09/09 03:26:53;;;;;;;15.25;8.07;;;13.80;99.90;;;;;;3059415;19;20023;-72
2022/09/09 03:28:17;;;;;;;13.18;7.38;;;13.90;99.90;;;;;;3058840;19;20384;-71
2022/09/09 03:29:38;;;;;;;12.18;7.32;;;13.80;99.90;;;;;;3058954;19;20028;-72
2022/09/09 03:31:10;;;;;;;13.05;7.55;;;13.80;99.90;;;;;;3059234;19;20077;-72
2022/09/09 03:32:34;;;;;;;11.77;7.05;;;13.80;99.90;;;;;;3059379;19;20021;-72
2022/09/09 03:33:55;;;;;;;12.43;7.65;;;13.60;99.90;;;;;;3059691;19;20014;-72
2022/09/09 03:35:19;;;;;;;13.20;8.20;;;13.80;99.90;;;;;;3059109;19;20016;-73
2022/09/09 03:36:43;;;;;;;13.10;7.40;;;14.60;99.90;;;;;;3061061;19;20010;-73
2022/09/09 03:38:04;;;;;;;12.60;6.88;;;13.90;99.90;;;;;;3058918;19;20014;-72
2022/09/09 03:39:28;;;;;;;11.82;7.40;;;13.70;99.90;;;;;;3057175;19;20437;-72
2022/09/09 03:40:55;;;;;;;13.35;7.82;;;13.90;99.90;;;;;;3058977;19;20014;-72
2022/09/09 03:42:20;;;;;;;12.15;7.57;;;13.90;99.90;;;;;;3059013;19;20014;-72
2022/09/09 03:43:44;;;;;;;14.07;7.80;;;13.90;99.90;;;;;;3059189;19;20510;-72
2022/09/09 03:45:10;;;;;;;13.00;7.47;;;13.90;99.90;;;;;;3058600;19;20015;-72
2022/09/09 03:46:38;;;;;;;12.18;7.43;;;13.80;99.90;;;;;;3058409;19;20009;-72
2022/09/09 03:47:59;;;;;;;12.20;7.63;;;13.80;99.90;;;;;;3058140;19;20018;-72
2022/09/09 03:49:24;;;;;;;12.27;7.37;;;15.10;99.90;;;;;;3058899;19;20437;-72
2022/09/09 03:50:45;;;;;;;13.00;7.20;;;13.70;99.90;;;;;;3059409;19;20774;-72
2022/09/09 03:52:11;;;;;;;12.73;7.15;;;13.90;99.90;;;;;;3058653;19;20553;-72
2022/09/09 03:53:35;;;;;;;14.40;7.25;;;13.90;99.90;;;;;;3059715;19;20018;-72
2022/09/09 03:54:56;;;;;;;13.27;7.13;;;13.80;99.90;;;;;;3058702;19;20022;-72
2022/09/09 03:56:21;;;;;;;14.45;6.97;;;14.00;99.90;;;;;;3058820;19;20635;-72
2022/09/09 03:57:45;;;;;;;11.18;6.32;;;13.90;99.90;;;;;;3060414;19;20015;-72
2022/09/09 03:59:08;;;;;;;11.95;6.45;;;13.80;99.90;;;;;;3060313;19;20014;-72
2022/09/09 04:00:32;;;;;;;;;;;13.80;99.90;;;;;;3059097;19;20467;-73
2022/09/09 04:01:57;;;;;;;12.68;6.53;;;14.90;99.90;;;;;;3059637;19;19919;-72
2022/09/09 04:03:22;;;;;;;11.73;6.63;;;14.00;99.90;;;;;;3058406;19;20428;-72
2022/09/09 04:04:45;;;;;;;11.57;6.40;;;14.90;99.90;;;;;;3058660;19;20015;-72
2022/09/09 04:06:09;;;;;;;10.30;6.55;;;13.90;99.90;;;;;;3058414;19;20013;-72
2022/09/09 04:07:33;;;;;;;11.25;6.80;;;13.90;99.90;;;;;;3058152;19;20044;-72
2022/09/09 04:08:55;;;;;;;10.23;6.10;;;13.70;99.90;;;;;;3058472;19;20014;-73
2022/09/09 04:10:19;;;;;;;11.00;6.93;;;14.00;99.90;;;;;;3059264;19;20074;-72
2022/09/09 04:11:42;;;;;;;12.50;6.53;;;13.80;99.90;;;;;;3058536;19;20035;-73
2022/09/09 04:13:04;;;;;;;8.80;6.18;;;13.80;99.90;;;;;;3058059;19;20018;-73
2022/09/09 04:14:28;;;;;;;11.85;6.20;;;14.00;99.90;;;;;;3060029;19;20630;-72
2022/09/09 04:15:52;;;;;;;11.77;6.45;;;14.70;99.90;;;;;;3057968;19;20074;-72
2022/09/09 04:17:19;;;;;;;9.88;6.70;;;14.00;99.90;;;;;;3057835;19;20475;-72
2022/09/09 04:18:40;;;;;;;12.38;6.75;;;14.00;99.90;;;;;;3058568;19;20018;-72
2022/09/09 04:20:05;;;;;;;10.63;6.32;;;13.90;99.90;;;;;;3058036;19;20014;-73
2022/09/09 04:21:26;;;;;;;10.25;6.38;;;14.00;99.90;;;;;;3059073;19;20022;-72
2022/09/09 04:22:50;;;;;;;13.07;7.05;;;13.60;99.90;;;;;;3058438;19;20014;-72
2022/09/09 04:24:16;;;;;;;9.77;7.05;;;13.90;99.90;;;;;;3058121;19;20018;-72
2022/09/09 04:25:40;;;;;;;12.50;6.68;;;14.30;99.90;;;;;;3058083;19;20011;-71
2022/09/09 04:27:03;;;;;;;10.55;6.60;;;14.00;99.90;;;;;;3058447;19;20019;-71
2022/09/09 04:28:26;;;;;;;15.73;7.45;;;13.60;99.90;;;;;;3058633;19;20074;-71
2022/09/09 04:29:50;;;;;;;13.25;7.45;;;13.90;99.90;;;;;;3059475;19;20056;-72
2022/09/09 04:31:18;;;;;;;13.68;7.75;;;14.10;99.90;;;;;;3058832;19;20018;-72
2022/09/09 04:32:42;;;;;;;12.95;6.97;;;13.80;99.90;;;;;;3058353;19;20010;-72
2022/09/09 04:34:06;;;;;;;12.55;7.55;;;13.90;99.90;;;;;;3058488;19;20029;-72
2022/09/09 04:35:27;;;;;;;13.35;7.43;;;14.00;99.90;;;;;;3058402;19;20025;-71
2022/09/09 04:36:51;;;;;;;10.30;7.03;;;13.80;99.90;;;;;;3059339;19;20025;-72
2022/09/09 04:38:13;;;;;;;13.73;7.57;;;14.90;99.90;;;;;;3058144;19;20022;-72
2022/09/09 04:39:37;;;;;;;11.35;6.97;;;14.00;99.90;;;;;;3058360;19;20014;-71
2022/09/09 04:40:58;;;;;;;14.60;7.32;;;14.00;99.90;;;;;;3057803;19;20014;-72
2022/09/09 04:42:22;;;;;;;11.23;7.30;;;14.10;99.90;;;;;;3057954;19;20014;-72
2022/09/09 04:43:47;;;;;;;13.18;7.00;;;14.00;99.90;;;;;;3059214;19;20035;-72
2022/09/09 04:45:11;;;;;;;16.00;7.72;;;14.00;99.90;;;;;;3057898;19;20014;-71
2022/09/09 04:46:34;;;;;;;15.30;8.00;;;13.90;99.90;;;;;;3058188;19;20022;-73
2022/09/09 04:48:00;;;;;;;14.75;7.63;;;13.80;99.90;;;;;;3057692;19;20026;-72
2022/09/09 04:49:24;;;;;;;13.68;7.40;;;14.20;99.90;;;;;;3057256;19;20019;-72
2022/09/09 04:50:54;;;;;;;13.20;8.02;;;13.90;99.90;;;;;;3056838;19;20018;-72
2022/09/09 04:52:18;;;;;;;12.82;7.68;;;13.90;99.90;;;;;;3058245;19;20081;-72
2022/09/09 04:53:40;;;;;;;14.07;6.88;;;13.90;99.90;;;;;;3058797;19;20383;-72
2022/09/09 04:55:04;;;;;;;13.75;7.07;;;14.00;99.90;;;;;;3058401;19;20022;-72
2022/09/09 04:56:29;;;;;;;12.60;7.30;;;13.80;99.90;;;;;;3058489;19;20091;-72
2022/09/09 04:57:50;;;;;;;13.10;7.13;;;14.00;99.90;;;;;;3059426;19;20082;-72
2022/09/09 04:59:14;;;;;;;12.85;7.07;;;13.90;99.90;;;;;;3058760;19;20412;-72
2022/09/09 05:00:36;;;;;;;11.70;7.15;;;13.90;99.90;;;;;;3056897;19;20081;-72
2022/09/09 05:02:00;;;;;;;12.13;7.50;;;13.80;99.90;;;;;;3058891;19;20014;-72
2022/09/09 05:03:24;;;;;;;12.98;7.10;;;14.00;99.90;;;;;;3057735;19;20283;-72
2022/09/09 05:04:49;;;;;;;11.20;6.95;;;14.30;99.90;;;;;;3057256;19;20825;-72
2022/09/09 05:06:14;;;;;;;10.70;6.28;;;14.10;99.90;;;;;;3057729;19;20515;-73
2022/09/09 05:07:36;;;;;;;11.20;7.10;;;13.70;99.90;;;;;;3057530;19;20011;-72
2022/09/09 05:09:00;;;;;;;12.07;6.50;;;13.90;99.90;;;;;;3057288;19;20011;-72
2022/09/09 05:10:22;;;;;;;9.38;6.30;;;13.90;99.90;;;;;;3057559;19;20022;-72
2022/09/09 05:11:46;;;;;;;9.95;5.88;;;13.70;99.90;;;;;;3057752;19;20015;-72
2022/09/09 05:13:10;;;;;;;7.60;5.28;;;13.90;99.90;;;;;;3059190;19;20105;-72
2022/09/09 05:14:32;;;;;;;9.73;5.55;;;13.80;99.90;;;;;;3058283;19;20471;-72
2022/09/09 05:15:56;;;;;;;9.57;5.40;;;13.80;99.90;;;;;;3056806;19;20011;-72
2022/09/09 05:17:17;;;;;;;8.38;5.13;;;14.00;99.90;;;;;;3057216;19;20010;-72
2022/09/09 05:18:45;;;;;;;9.77;5.82;;;13.90;99.90;;;;;;3058860;19;20110;-72
2022/09/09 05:20:10;;;;;;;10.57;4.97;;;14.30;99.90;;;;;;3057837;19;20085;-72
2022/09/09 05:21:34;;;;;;;8.23;5.05;;;13.90;99.90;;;;;;3057501;19;20027;-72
2022/09/09 05:22:58;;;;;;;8.27;5.50;;;13.70;99.90;;;;;;3057406;19;20014;-72
2022/09/09 05:24:22;;;;;;;10.25;5.22;;;13.80;99.90;;;;;;3058564;19;20475;-72
2022/09/09 05:25:55;;;;;;;7.40;5.03;;;13.70;99.90;;;;;;3057567;19;20034;-72
2022/09/09 05:27:19;;;;;;;9.05;5.00;;;13.80;99.90;;;;;;3058326;19;20018;-72
2022/09/09 05:28:42;;;;;;;10.60;5.50;;;13.80;99.90;;;;;;3057074;19;20481;-72
2022/09/09 05:30:08;;;;;;;8.20;5.07;;;13.80;99.90;;;;;;3057377;19;20010;-72
2022/09/09 05:31:33;;;;;;;11.15;5.45;;;13.70;99.90;;;;;;3057363;19;20014;-73
2022/09/09 05:32:59;;;;;;;8.88;5.05;;;13.70;99.90;;;;;;3057293;19;20014;-72
2022/09/09 05:34:25;;;;;;;8.85;5.40;;;13.70;99.90;;;;;;3057333;19;20090;-73
2022/09/09 05:35:49;;;;;;;9.25;5.40;;;13.70;99.90;;;;;;3058244;19;20430;-73
2022/09/09 05:37:13;;;;;;;9.07;5.03;;;13.80;99.90;;;;;;3057375;19;20024;-71
2022/09/09 05:38:35;;;;;;;8.20;5.18;;;13.80;99.90;;;;;;3056858;19;20019;-72
2022/09/09 05:40:00;;;;;;;7.50;5.15;;;13.80;99.90;;;;;;3057354;19;20049;-72
2022/09/09 05:41:25;;;;;;;9.07;5.13;;;13.80;99.90;;;;;;3057278;19;20084;-71
2022/09/09 05:42:49;;;;;;;12.23;5.90;;;13.70;99.90;;;;;;3057305;19;20014;-71
2022/09/09 05:44:13;;;;;;;9.13;5.35;;;13.70;99.90;;;;;;3058166;19;20014;-71
2022/09/09 05:45:34;;;;;;;8.77;5.25;;;13.90;99.90;;;;;;3056778;19;20010;-71
2022/09/09 05:46:58;;;;;;;8.98;5.60;;;13.70;99.90;;;;;;3055821;19;20007;-71
2022/09/09 05:48:19;;;;;;;9.23;5.15;;;13.70;99.90;;;;;;3058731;19;20026;-71
2022/09/09 05:49:46;;;;;;;9.68;4.72;;;13.60;99.90;;;;;;3056407;19;20007;-71
2022/09/09 05:51:12;;;;;;;7.65;5.25;;;13.90;99.90;;;;;;3057228;19;20026;-71
2022/09/09 05:52:37;;;;;;;11.88;5.32;;;13.80;99.90;;;;;;3058852;19;20019;-70
2022/09/09 05:54:01;;;;;;;7.57;5.10;;;13.70;99.90;;;;;;3058621;19;20018;-71
2022/09/09 05:55:25;;;;;;;8.57;5.18;;;13.80;99.90;;;;;;3056774;19;20011;-70
2022/09/09 05:56:50;;;;;;;9.23;4.93;;;13.70;99.90;;;;;;3058005;19;20037;-71
2022/09/09 05:58:12;;;;;;;10.20;4.88;;;13.80;99.90;;;;;;3054509;19;20494;-70
2022/09/09 05:59:35;;;;;;;10.13;5.30;;;13.80;99.90;;;;;;3055905;19;20041;-73
2022/09/09 06:01:06;;;;;;;9.45;5.93;;;13.70;99.90;;;;;;3057845;19;20737;-70
2022/09/09 06:02:32;;;;;;;10.13;5.75;;;13.80;99.90;;;;;;3056897;19;20086;-74
2022/09/09 06:03:57;;;;;;;10.93;5.40;;;13.80;99.90;;;;;;3060711;19;20038;-76
2022/09/09 06:05:27;;;;;;;16.05;5.95;;;13.70;99.90;;;;;;3061442;19;20463;-76
2022/09/09 06:06:51;;;;;;;9.27;5.45;;;13.60;99.90;;;;;;3059927;19;20029;-77
2022/09/09 06:08:15;;;;;;;8.88;5.50;;;13.80;99.90;;;;;;3059214;19;20370;-75
2022/09/09 06:09:40;;;;;;;9.38;5.47;;;13.70;99.90;;;;;;3060753;19;20056;-73
2022/09/09 06:11:05;;;;;;;11.45;5.40;;;13.80;99.90;;;;;;3059064;19;20404;-73
2022/09/09 06:12:29;;;;;;;9.82;5.70;;;13.70;99.90;;;;;;3061223;19;20028;-71
2022/09/09 06:13:53;;;;;;;10.60;5.20;;;13.80;99.90;;;;;;3059276;19;20011;-72
2022/09/09 06:15:17;;;;;;;9.57;5.18;;;13.80;99.90;;;;;;3059789;19;20018;-70
2022/09/09 06:16:38;;;;;;;8.98;4.80;;;13.70;99.90;;;;;;3058539;19;20015;-69
2022/09/09 06:18:02;;;;;;;11.73;5.63;;;13.80;99.90;;;;;;3060693;19;20017;-69
2022/09/09 06:19:26;;;;;;;8.32;5.10;;;13.80;99.90;;;;;;3061185;19;20014;-69
2022/09/09 06:21:04;;;;;;;10.13;5.80;;;13.80;99.90;;;;;;3061312;19;20085;-69
2022/09/09 06:22:27;;;;;;;10.20;5.50;;;13.90;99.90;;;;;;3060698;19;20062;-69
2022/09/09 06:23:52;;;;;;;10.38;5.45;;;13.90;99.90;;;;;;3059908;19;20014;-69
2022/09/09 06:25:18;;;;;;;8.18;5.13;;;14.90;99.90;;;;;;3059677;19;20357;-69
2022/09/09 06:26:42;;;;;;;9.85;5.22;;;13.90;99.90;;;;;;3061389;19;20054;-69
2022/09/09 06:28:03;;;;;;;10.25;5.55;;;15.10;99.90;;;;;;3060943;19;20021;-69
2022/09/09 06:29:27;;;;;;;10.55;5.78;;;13.90;99.90;;;;;;3059383;19;20014;-69
2022/09/09 06:30:56;;;;;;;10.52;5.38;;;13.90;99.90;;;;;;3059693;19;20011;-69
2022/09/09 06:32:20;;;;;;;8.50;5.20;;;14.40;99.90;;;;;;3060723;19;20014;-70
2022/09/09 06:33:43;;;;;;;9.38;6.00;;;14.60;99.90;;;;;;3059889;19;20021;-71
2022/09/09 06:35:07;;;;;;;;;;;14.30;99.90;;;;;;3060154;19;20023;-70
2022/09/09 06:36:36;;;;;;;9.88;5.70;;;14.00;99.90;;;;;;3059805;19;19982;-69
2022/09/09 06:38:00;;;;;;;8.77;5.35;;;14.00;99.90;;;;;;3059814;19;20030;-71
2022/09/09 06:39:24;;;;;;;10.15;5.55;;;14.10;99.90;;;;;;3059573;19;20116;-70
2022/09/09 06:40:54;;;;;;;9.15;5.88;;;13.90;99.90;;;;;;3060346;19;20023;-70
2022/09/09 06:42:18;;;;;;;10.27;5.38;;;14.20;99.90;;;;;;3060709;19;20039;-70
2022/09/09 06:43:42;;;;;;;10.25;5.45;;;14.00;99.90;;;;;;3061134;19;20404;-70
2022/09/09 06:45:07;;;;;;;8.60;5.45;;;14.20;99.90;;;;;;3059447;19;20011;-70
2022/09/09 06:46:32;;;;;;;10.63;6.05;;;14.00;99.90;;;;;;3059392;19;20014;-70
2022/09/09 06:47:56;;;;;;;8.48;5.68;;;14.20;99.90;;;;;;3059427;19;20093;-69
2022/09/09 06:49:19;;;;;;;9.00;5.55;;;14.10;99.90;;;;;;3059444;19;20087;-69
2022/09/09 06:50:43;;;;;;;11.13;5.63;;;14.20;99.90;;;;;;3059935;19;20015;-70
2022/09/09 06:52:10;;;;;;;9.48;5.72;;;14.20;99.90;;;;;;3059919;19;20113;-70
2022/09/09 06:53:35;;;;;;;10.23;5.82;;;14.40;99.90;;;;;;3059896;19;20130;-69
2022/09/09 06:54:59;;;;;;;9.60;5.90;;;14.30;99.90;;;;;;3059673;19;20006;-70
2022/09/09 06:56:25;;;;;;;8.60;5.80;;;14.20;99.90;;;;;;3059588;19;20070;-70
2022/09/09 06:57:50;;;;;;;10.35;5.88;;;14.40;99.90;;;;;;3059162;19;20014;-70
2022/09/09 06:59:14;;;;;;;11.48;6.25;;;15.10;99.90;;;;;;3059477;19;20033;-71
2022/09/09 07:00:38;;;;;;;8.07;5.30;;;15.50;99.90;;;;;;3061163;19;20027;-72
2022/09/09 07:02:02;;;;;;;9.05;5.80;;;14.50;99.90;;;;;;3059093;19;20029;-70
2022/09/09 07:03:26;;;;;;;7.82;5.38;;;14.50;99.90;;;;;;3059377;19;20471;-70
2022/09/09 07:04:51;;;;;;;9.38;5.13;;;14.50;99.90;;;;;;3059175;19;20018;-70
2022/09/09 07:06:17;;;;;;;7.70;5.07;;;14.60;99.90;;;;;;3059611;19;20138;-70
2022/09/09 07:07:44;;;;;;;6.97;5.35;;;14.40;99.90;;;;;;3059646;19;20018;-70
2022/09/09 07:09:10;;;;;;;8.80;5.38;;;14.50;99.90;;;;;;3059297;19;20111;-70
2022/09/09 07:10:34;;;;;;;10.13;5.18;;;14.60;99.90;;;;;;3057909;19;20014;-70
2022/09/09 07:11:59;;;;;;;9.07;5.38;;;14.60;99.90;;;;;;3059288;19;20018;-70
2022/09/09 07:13:27;;;;;;;10.02;5.35;;;14.60;99.90;;;;;;3059536;19;20133;-71
2022/09/09 07:14:50;;;;;;;9.27;5.35;;;14.60;99.90;;;;;;3059334;19;20459;-71
2022/09/09 07:16:16;;;;;;;10.40;5.35;;;15.10;99.90;;;;;;3060727;19;20021;-72
2022/09/09 07:17:40;;;;;;;8.13;5.22;;;14.70;99.90;;;;;;3061308;19;20033;-71